sensor_id;sensor_type;location;lat;lon;timestamp;P1;durP1;ratioP1;P2;durP2;ratioP2
19861;SDS011;10093;48.148;8.542;2022-08-23T00:01:48;7.97;;;5.38;;
19861;SDS011;10093;48.148;8.542;2022-08-23T00:04:20;6.70;;;5.07;;
19861;SDS011;10093;48.148;8.542;2022-08-23T00:06:48;8.98;;;5.05;;
19861;SDS011;10093;48.148;8.542;2022-08-23T00:09:15;6.38;;;4.85;;
19861;SDS011;10093;48.148;8.542;2022-08-23T00:14:31;10.48;;;5.30;;
19861;SDS011;10093;48.148;8.542;2022-08-23T00:16:59;5.85;;;4.80;;
19861;SDS011;10093;48.148;8.542;2022-08-23T00:19:25;7.55;;;5.18;;
19861;SDS011;10093;48.148;8.542;2022-08-23T00:21:52;7.63;;;5.43;;
19861;SDS011;10093;48.148;8.542;2022-08-23T00:24:20;8.70;;;5.72;;
19861;SDS011;10093;48.148;8.542;2022-08-23T00:26:48;8.18;;;5.95;;
19861;SDS011;10093;48.148;8.542;2022-08-23T00:29:14;6.72;;;5.90;;
19861;SDS011;10093;48.148;8.542;2022-08-23T00:31:40;6.65;;;5.47;;
19861;SDS011;10093;48.148;8.542;2022-08-23T00:34:06;8.70;;;5.70;;
19861;SDS011;10093;48.148;8.542;2022-08-23T00:36:32;7.18;;;5.90;;
19861;SDS011;10093;48.148;8.542;2022-08-23T00:38:58;7.97;;;6.35;;
19861;SDS011;10093;48.148;8.542;2022-08-23T00:41:23;9.55;;;6.18;;
19861;SDS011;10093;48.148;8.542;2022-08-23T00:43:57;10.18;;;6.97;;
19861;SDS011;10093;48.148;8.542;2022-08-23T00:49:35;8.38;;;5.55;;
19861;SDS011;10093;48.148;8.542;2022-08-23T00:54:31;7.03;;;6.15;;
19861;SDS011;10093;48.148;8.542;2022-08-23T00:56:59;8.13;;;6.00;;
19861;SDS011;10093;48.148;8.542;2022-08-23T00:59:27;7.07;;;5.70;;
19861;SDS011;10093;48.148;8.542;2022-08-23T01:01:53;6.50;;;5.80;;
19861;SDS011;10093;48.148;8.542;2022-08-23T01:04:19;7.72;;;5.78;;
19861;SDS011;10093;48.148;8.542;2022-08-23T01:07:06;9.63;;;6.30;;
19861;SDS011;10093;48.148;8.542;2022-08-23T01:09:39;8.40;;;6.00;;
19861;SDS011;10093;48.148;8.542;2022-08-23T01:12:08;6.32;;;5.72;;
19861;SDS011;10093;48.148;8.542;2022-08-23T01:14:52;12.88;;;5.97;;
19861;SDS011;10093;48.148;8.542;2022-08-23T01:17:22;8.32;;;6.15;;
19861;SDS011;10093;48.148;8.542;2022-08-23T01:20:00;7.63;;;6.15;;
19861;SDS011;10093;48.148;8.542;2022-08-23T01:22:32;8.32;;;6.68;;
19861;SDS011;10093;48.148;8.542;2022-08-23T01:25:16;8.55;;;6.65;;
19861;SDS011;10093;48.148;8.542;2022-08-23T01:27:45;10.32;;;6.53;;
19861;SDS011;10093;48.148;8.542;2022-08-23T01:30:13;7.35;;;6.65;;
19861;SDS011;10093;48.148;8.542;2022-08-23T01:32:46;7.13;;;6.10;;
19861;SDS011;10093;48.148;8.542;2022-08-23T01:35:15;11.20;;;7.25;;
19861;SDS011;10093;48.148;8.542;2022-08-23T01:37:41;11.60;;;7.15;;
19861;SDS011;10093;48.148;8.542;2022-08-23T01:40:07;9.38;;;6.47;;
19861;SDS011;10093;48.148;8.542;2022-08-23T01:42:33;7.93;;;6.95;;
19861;SDS011;10093;48.148;8.542;2022-08-23T01:44:59;8.52;;;6.47;;
19861;SDS011;10093;48.148;8.542;2022-08-23T01:47:25;7.30;;;6.50;;
19861;SDS011;10093;48.148;8.542;2022-08-23T01:49:50;7.72;;;6.93;;
19861;SDS011;10093;48.148;8.542;2022-08-23T01:52:16;9.13;;;7.10;;
19861;SDS011;10093;48.148;8.542;2022-08-23T01:54:43;9.77;;;7.07;;
19861;SDS011;10093;48.148;8.542;2022-08-23T01:57:09;10.85;;;7.35;;
19861;SDS011;10093;48.148;8.542;2022-08-23T01:59:35;7.63;;;6.88;;
19861;SDS011;10093;48.148;8.542;2022-08-23T02:02:02;7.63;;;6.53;;
19861;SDS011;10093;48.148;8.542;2022-08-23T02:04:27;7.85;;;6.80;;
19861;SDS011;10093;48.148;8.542;2022-08-23T02:06:54;11.00;;;7.50;;
19861;SDS011;10093;48.148;8.542;2022-08-23T02:09:20;8.43;;;7.15;;
19861;SDS011;10093;48.148;8.542;2022-08-23T02:11:46;11.73;;;7.57;;
19861;SDS011;10093;48.148;8.542;2022-08-23T02:14:13;7.78;;;6.97;;
19861;SDS011;10093;48.148;8.542;2022-08-23T02:16:44;8.88;;;6.88;;
19861;SDS011;10093;48.148;8.542;2022-08-23T02:19:15;7.95;;;6.68;;
19861;SDS011;10093;48.148;8.542;2022-08-23T02:21:41;8.63;;;6.97;;
19861;SDS011;10093;48.148;8.542;2022-08-23T02:24:09;8.77;;;7.07;;
19861;SDS011;10093;48.148;8.542;2022-08-23T02:26:38;10.30;;;7.13;;
19861;SDS011;10093;48.148;8.542;2022-08-23T02:29:06;9.95;;;6.90;;
19861;SDS011;10093;48.148;8.542;2022-08-23T02:31:32;8.52;;;6.70;;
19861;SDS011;10093;48.148;8.542;2022-08-23T02:33:58;10.18;;;7.55;;
19861;SDS011;10093;48.148;8.542;2022-08-23T02:36:25;11.60;;;7.57;;
19861;SDS011;10093;48.148;8.542;2022-08-23T02:38:51;9.25;;;6.88;;
19861;SDS011;10093;48.148;8.542;2022-08-23T02:41:17;11.77;;;7.65;;
19861;SDS011;10093;48.148;8.542;2022-08-23T02:43:43;7.63;;;6.22;;
19861;SDS011;10093;48.148;8.542;2022-08-23T02:46:09;7.10;;;6.40;;
19861;SDS011;10093;48.148;8.542;2022-08-23T02:48:35;7.82;;;7.03;;
19861;SDS011;10093;48.148;8.542;2022-08-23T02:51:02;11.02;;;6.82;;
19861;SDS011;10093;48.148;8.542;2022-08-23T02:53:29;8.65;;;6.05;;
19861;SDS011;10093;48.148;8.542;2022-08-23T02:55:56;7.15;;;6.40;;
19861;SDS011;10093;48.148;8.542;2022-08-23T02:58:22;9.50;;;6.53;;
19861;SDS011;10093;48.148;8.542;2022-08-23T03:00:48;7.97;;;6.72;;
19861;SDS011;10093;48.148;8.542;2022-08-23T03:03:14;7.75;;;6.97;;
19861;SDS011;10093;48.148;8.542;2022-08-23T03:05:41;10.50;;;7.60;;
19861;SDS011;10093;48.148;8.542;2022-08-23T03:08:07;9.60;;;7.15;;
19861;SDS011;10093;48.148;8.542;2022-08-23T03:10:33;9.48;;;7.25;;
19861;SDS011;10093;48.148;8.542;2022-08-23T03:12:58;10.68;;;8.30;;
19861;SDS011;10093;48.148;8.542;2022-08-23T03:15:25;10.95;;;9.15;;
19861;SDS011;10093;48.148;8.542;2022-08-23T03:17:51;12.15;;;8.88;;
19861;SDS011;10093;48.148;8.542;2022-08-23T03:20:16;11.48;;;8.95;;
19861;SDS011;10093;48.148;8.542;2022-08-23T03:22:42;12.27;;;9.05;;
19861;SDS011;10093;48.148;8.542;2022-08-23T03:25:08;13.38;;;9.40;;
19861;SDS011;10093;48.148;8.542;2022-08-23T03:27:34;11.90;;;8.65;;
19861;SDS011;10093;48.148;8.542;2022-08-23T03:30:00;13.32;;;10.50;;
19861;SDS011;10093;48.148;8.542;2022-08-23T03:32:26;14.27;;;9.57;;
19861;SDS011;10093;48.148;8.542;2022-08-23T03:34:52;9.77;;;8.02;;
19861;SDS011;10093;48.148;8.542;2022-08-23T03:37:18;10.32;;;7.93;;
19861;SDS011;10093;48.148;8.542;2022-08-23T03:39:44;7.68;;;6.55;;
19861;SDS011;10093;48.148;8.542;2022-08-23T03:42:10;8.73;;;6.80;;
19861;SDS011;10093;48.148;8.542;2022-08-23T03:44:36;9.82;;;7.47;;
19861;SDS011;10093;48.148;8.542;2022-08-23T03:47:02;9.30;;;7.28;;
19861;SDS011;10093;48.148;8.542;2022-08-23T03:49:29;9.68;;;7.78;;
19861;SDS011;10093;48.148;8.542;2022-08-23T03:51:55;8.77;;;7.57;;
19861;SDS011;10093;48.148;8.542;2022-08-23T03:54:22;11.45;;;7.43;;
19861;SDS011;10093;48.148;8.542;2022-08-23T03:57:21;9.45;;;6.70;;
19861;SDS011;10093;48.148;8.542;2022-08-23T03:59:40;7.78;;;6.82;;
19861;SDS011;10093;48.148;8.542;2022-08-23T04:02:06;8.00;;;6.88;;
19861;SDS011;10093;48.148;8.542;2022-08-23T04:04:33;10.85;;;7.47;;
19861;SDS011;10093;48.148;8.542;2022-08-23T04:06:59;11.25;;;7.80;;
19861;SDS011;10093;48.148;8.542;2022-08-23T04:09:25;9.30;;;8.18;;
19861;SDS011;10093;48.148;8.542;2022-08-23T04:11:50;13.82;;;8.40;;
19861;SDS011;10093;48.148;8.542;2022-08-23T04:14:16;10.27;;;8.10;;
19861;SDS011;10093;48.148;8.542;2022-08-23T04:16:42;8.73;;;7.68;;
19861;SDS011;10093;48.148;8.542;2022-08-23T04:19:09;12.00;;;7.85;;
19861;SDS011;10093;48.148;8.542;2022-08-23T04:21:37;8.73;;;7.68;;
19861;SDS011;10093;48.148;8.542;2022-08-23T04:24:05;12.15;;;8.40;;
19861;SDS011;10093;48.148;8.542;2022-08-23T04:26:31;8.90;;;7.68;;
19861;SDS011;10093;48.148;8.542;2022-08-23T04:28:57;9.23;;;7.90;;
19861;SDS011;10093;48.148;8.542;2022-08-23T04:31:24;12.68;;;8.65;;
19861;SDS011;10093;48.148;8.542;2022-08-23T04:33:51;10.45;;;8.07;;
19861;SDS011;10093;48.148;8.542;2022-08-23T04:36:17;10.52;;;8.65;;
19861;SDS011;10093;48.148;8.542;2022-08-23T04:38:43;9.98;;;7.80;;
19861;SDS011;10093;48.148;8.542;2022-08-23T04:41:09;11.30;;;8.10;;
19861;SDS011;10093;48.148;8.542;2022-08-23T04:43:53;14.30;;;8.25;;
19861;SDS011;10093;48.148;8.542;2022-08-23T04:46:20;8.40;;;7.60;;
19861;SDS011;10093;48.148;8.542;2022-08-23T04:48:45;10.30;;;7.88;;
19861;SDS011;10093;48.148;8.542;2022-08-23T04:51:11;10.07;;;7.80;;
19861;SDS011;10093;48.148;8.542;2022-08-23T04:53:37;9.23;;;7.65;;
19861;SDS011;10093;48.148;8.542;2022-08-23T04:56:04;9.63;;;7.72;;
19861;SDS011;10093;48.148;8.542;2022-08-23T04:58:30;9.57;;;8.27;;
19861;SDS011;10093;48.148;8.542;2022-08-23T05:00:57;12.40;;;8.60;;
19861;SDS011;10093;48.148;8.542;2022-08-23T05:03:25;9.93;;;8.75;;
19861;SDS011;10093;48.148;8.542;2022-08-23T05:05:51;11.82;;;8.80;;
19861;SDS011;10093;48.148;8.542;2022-08-23T05:08:18;10.95;;;8.73;;
19861;SDS011;10093;48.148;8.542;2022-08-23T05:10:43;11.27;;;9.05;;
19861;SDS011;10093;48.148;8.542;2022-08-23T05:13:09;10.50;;;8.63;;
19861;SDS011;10093;48.148;8.542;2022-08-23T05:15:35;12.90;;;9.32;;
19861;SDS011;10093;48.148;8.542;2022-08-23T05:18:01;9.63;;;7.80;;
19861;SDS011;10093;48.148;8.542;2022-08-23T05:20:26;6.75;;;5.80;;
19861;SDS011;10093;48.148;8.542;2022-08-23T05:22:52;8.02;;;5.38;;
19861;SDS011;10093;48.148;8.542;2022-08-23T05:25:18;4.47;;;3.42;;
19861;SDS011;10093;48.148;8.542;2022-08-23T05:27:44;4.00;;;3.50;;
19861;SDS011;10093;48.148;8.542;2022-08-23T05:30:10;4.95;;;3.33;;
19861;SDS011;10093;48.148;8.542;2022-08-23T05:32:37;4.00;;;3.20;;
19861;SDS011;10093;48.148;8.542;2022-08-23T05:35:03;5.20;;;2.85;;
19861;SDS011;10093;48.148;8.542;2022-08-23T05:37:29;2.92;;;2.72;;
19861;SDS011;10093;48.148;8.542;2022-08-23T05:39:55;3.30;;;2.40;;
19861;SDS011;10093;48.148;8.542;2022-08-23T05:42:21;3.78;;;2.67;;
19861;SDS011;10093;48.148;8.542;2022-08-23T05:44:46;3.03;;;2.72;;
19861;SDS011;10093;48.148;8.542;2022-08-23T05:47:13;4.40;;;2.65;;
19861;SDS011;10093;48.148;8.542;2022-08-23T05:49:40;2.78;;;2.50;;
19861;SDS011;10093;48.148;8.542;2022-08-23T05:52:07;2.90;;;2.40;;
19861;SDS011;10093;48.148;8.542;2022-08-23T05:54:35;3.72;;;2.13;;
19861;SDS011;10093;48.148;8.542;2022-08-23T05:57:02;2.40;;;2.20;;
19861;SDS011;10093;48.148;8.542;2022-08-23T05:59:28;3.08;;;2.70;;
19861;SDS011;10093;48.148;8.542;2022-08-23T06:01:54;2.97;;;2.70;;
19861;SDS011;10093;48.148;8.542;2022-08-23T06:04:21;3.78;;;2.50;;
19861;SDS011;10093;48.148;8.542;2022-08-23T06:06:47;3.15;;;2.53;;
19861;SDS011;10093;48.148;8.542;2022-08-23T06:11:39;7.28;;;2.60;;
19861;SDS011;10093;48.148;8.542;2022-08-23T06:14:07;5.20;;;2.80;;
19861;SDS011;10093;48.148;8.542;2022-08-23T06:16:34;6.20;;;2.83;;
19861;SDS011;10093;48.148;8.542;2022-08-23T06:19:02;4.20;;;2.70;;
19861;SDS011;10093;48.148;8.542;2022-08-23T06:21:28;5.25;;;2.63;;
19861;SDS011;10093;48.148;8.542;2022-08-23T06:23:55;3.95;;;2.42;;
19861;SDS011;10093;48.148;8.542;2022-08-23T06:26:23;2.45;;;2.25;;
19861;SDS011;10093;48.148;8.542;2022-08-23T06:28:53;3.75;;;2.60;;
19861;SDS011;10093;48.148;8.542;2022-08-23T06:31:20;4.78;;;2.40;;
19861;SDS011;10093;48.148;8.542;2022-08-23T06:34:07;3.83;;;2.05;;
19861;SDS011;10093;48.148;8.542;2022-08-23T06:36:34;2.60;;;2.40;;
19861;SDS011;10093;48.148;8.542;2022-08-23T06:39:02;6.45;;;2.45;;
19861;SDS011;10093;48.148;8.542;2022-08-23T06:41:32;3.10;;;2.50;;
19861;SDS011;10093;48.148;8.542;2022-08-23T06:43:58;2.88;;;2.17;;
19861;SDS011;10093;48.148;8.542;2022-08-23T06:46:24;2.47;;;2.10;;
19861;SDS011;10093;48.148;8.542;2022-08-23T06:48:51;4.32;;;2.28;;
19861;SDS011;10093;48.148;8.542;2022-08-23T06:54:04;2.75;;;2.10;;
19861;SDS011;10093;48.148;8.542;2022-08-23T06:56:31;2.22;;;1.77;;
19861;SDS011;10093;48.148;8.542;2022-08-23T06:58:59;5.05;;;1.95;;
19861;SDS011;10093;48.148;8.542;2022-08-23T07:03:53;2.13;;;1.88;;
19861;SDS011;10093;48.148;8.542;2022-08-23T07:06:23;4.90;;;2.05;;
19861;SDS011;10093;48.148;8.542;2022-08-23T07:08:49;3.60;;;2.22;;
19861;SDS011;10093;48.148;8.542;2022-08-23T07:11:16;3.88;;;1.75;;
19861;SDS011;10093;48.148;8.542;2022-08-23T07:13:42;2.80;;;2.08;;
19861;SDS011;10093;48.148;8.542;2022-08-23T07:16:08;2.58;;;1.67;;
19861;SDS011;10093;48.148;8.542;2022-08-23T07:18:34;5.20;;;2.00;;
19861;SDS011;10093;48.148;8.542;2022-08-23T07:21:00;4.45;;;1.90;;
19861;SDS011;10093;48.148;8.542;2022-08-23T07:23:28;1.70;;;1.60;;
19861;SDS011;10093;48.148;8.542;2022-08-23T07:25:59;5.65;;;1.65;;
19861;SDS011;10093;48.148;8.542;2022-08-23T07:28:26;2.03;;;1.60;;
19861;SDS011;10093;48.148;8.542;2022-08-23T07:30:52;5.63;;;1.38;;
19861;SDS011;10093;48.148;8.542;2022-08-23T07:33:19;3.17;;;1.38;;
19861;SDS011;10093;48.148;8.542;2022-08-23T07:35:49;4.05;;;1.70;;
19861;SDS011;10093;48.148;8.542;2022-08-23T07:38:16;1.48;;;1.17;;
19861;SDS011;10093;48.148;8.542;2022-08-23T07:40:42;4.35;;;1.70;;
19861;SDS011;10093;48.148;8.542;2022-08-23T07:43:09;3.92;;;1.20;;
19861;SDS011;10093;48.148;8.542;2022-08-23T07:45:35;4.38;;;1.20;;
19861;SDS011;10093;48.148;8.542;2022-08-23T07:48:03;1.90;;;1.00;;
19861;SDS011;10093;48.148;8.542;2022-08-23T07:50:29;2.47;;;1.10;;
19861;SDS011;10093;48.148;8.542;2022-08-23T07:52:55;2.15;;;1.00;;
19861;SDS011;10093;48.148;8.542;2022-08-23T07:55:21;2.65;;;1.27;;
19861;SDS011;10093;48.148;8.542;2022-08-23T07:57:47;1.70;;;0.95;;
19861;SDS011;10093;48.148;8.542;2022-08-23T08:00:13;0.93;;;0.80;;
19861;SDS011;10093;48.148;8.542;2022-08-23T08:02:39;2.63;;;0.90;;
19861;SDS011;10093;48.148;8.542;2022-08-23T08:05:05;1.15;;;0.82;;
19861;SDS011;10093;48.148;8.542;2022-08-23T08:07:31;1.33;;;0.88;;
19861;SDS011;10093;48.148;8.542;2022-08-23T08:09:57;2.58;;;1.00;;
19861;SDS011;10093;48.148;8.542;2022-08-23T08:12:23;1.45;;;0.70;;
19861;SDS011;10093;48.148;8.542;2022-08-23T08:14:49;2.42;;;0.80;;
19861;SDS011;10093;48.148;8.542;2022-08-23T08:17:15;2.47;;;0.68;;
19861;SDS011;10093;48.148;8.542;2022-08-23T08:19:42;2.70;;;0.80;;
19861;SDS011;10093;48.148;8.542;2022-08-23T08:22:08;2.22;;;0.80;;
19861;SDS011;10093;48.148;8.542;2022-08-23T08:24:33;2.75;;;0.73;;
19861;SDS011;10093;48.148;8.542;2022-08-23T08:26:59;1.73;;;0.70;;
19861;SDS011;10093;48.148;8.542;2022-08-23T08:29:25;2.15;;;0.68;;
19861;SDS011;10093;48.148;8.542;2022-08-23T08:31:51;3.15;;;0.60;;
19861;SDS011;10093;48.148;8.542;2022-08-23T08:34:17;0.85;;;0.60;;
19861;SDS011;10093;48.148;8.542;2022-08-23T08:36:44;3.35;;;0.75;;
19861;SDS011;10093;48.148;8.542;2022-08-23T08:39:17;2.78;;;0.55;;
19861;SDS011;10093;48.148;8.542;2022-08-23T08:41:59;1.85;;;0.70;;
19861;SDS011;10093;48.148;8.542;2022-08-23T08:47:18;1.40;;;0.60;;
19861;SDS011;10093;48.148;8.542;2022-08-23T08:50:07;3.58;;;0.82;;
19861;SDS011;10093;48.148;8.542;2022-08-23T08:55:27;2.60;;;0.60;;
19861;SDS011;10093;48.148;8.542;2022-08-23T08:57:57;1.33;;;0.75;;
19861;SDS011;10093;48.148;8.542;2022-08-23T09:00:30;1.05;;;0.60;;
19861;SDS011;10093;48.148;8.542;2022-08-23T09:03:02;1.55;;;1.17;;
19861;SDS011;10093;48.148;8.542;2022-08-23T09:05:35;1.80;;;0.95;;
19861;SDS011;10093;48.148;8.542;2022-08-23T09:11:18;2.35;;;0.70;;
19861;SDS011;10093;48.148;8.542;2022-08-23T09:14:11;1.50;;;0.63;;
19861;SDS011;10093;48.148;8.542;2022-08-23T09:16:52;2.17;;;0.80;;
19861;SDS011;10093;48.148;8.542;2022-08-23T09:19:22;4.18;;;1.13;;
19861;SDS011;10093;48.148;8.542;2022-08-23T09:21:55;1.77;;;0.90;;
19861;SDS011;10093;48.148;8.542;2022-08-23T09:24:27;1.33;;;0.82;;
19861;SDS011;10093;48.148;8.542;2022-08-23T09:26:53;2.63;;;0.90;;
19861;SDS011;10093;48.148;8.542;2022-08-23T09:29:24;1.50;;;0.82;;
19861;SDS011;10093;48.148;8.542;2022-08-23T09:31:53;1.90;;;0.80;;
19861;SDS011;10093;48.148;8.542;2022-08-23T09:48:13;2.03;;;1.00;;
19861;SDS011;10093;48.148;8.542;2022-08-23T09:50:55;0.90;;;0.70;;
19861;SDS011;10093;48.148;8.542;2022-08-23T09:53:48;3.50;;;0.77;;
19861;SDS011;10093;48.148;8.542;2022-08-23T09:56:35;3.75;;;0.85;;
19861;SDS011;10093;48.148;8.542;2022-08-23T09:59:18;1.23;;;0.60;;
19861;SDS011;10093;48.148;8.542;2022-08-23T10:01:51;2.20;;;0.90;;
19861;SDS011;10093;48.148;8.542;2022-08-23T10:06:54;4.22;;;0.85;;
19861;SDS011;10093;48.148;8.542;2022-08-23T10:09:25;0.77;;;0.73;;
19861;SDS011;10093;48.148;8.542;2022-08-23T10:11:52;3.42;;;0.80;;
19861;SDS011;10093;48.148;8.542;2022-08-23T10:14:19;2.00;;;0.80;;
19861;SDS011;10093;48.148;8.542;2022-08-23T10:16:54;3.30;;;0.77;;
19861;SDS011;10093;48.148;8.542;2022-08-23T10:19:28;4.25;;;0.70;;
19861;SDS011;10093;48.148;8.542;2022-08-23T10:24:28;4.30;;;1.00;;
19861;SDS011;10093;48.148;8.542;2022-08-23T10:33:42;1.65;;;0.57;;
19861;SDS011;10093;48.148;8.542;2022-08-23T10:36:22;2.58;;;0.90;;
19861;SDS011;10093;48.148;8.542;2022-08-23T10:39:29;1.58;;;0.70;;
19861;SDS011;10093;48.148;8.542;2022-08-23T10:42:10;3.95;;;0.70;;
19861;SDS011;10093;48.148;8.542;2022-08-23T10:44:47;4.47;;;0.65;;
19861;SDS011;10093;48.148;8.542;2022-08-23T10:47:28;2.05;;;0.60;;
19861;SDS011;10093;48.148;8.542;2022-08-23T10:50:06;6.22;;;0.70;;
19861;SDS011;10093;48.148;8.542;2022-08-23T10:52:37;3.25;;;0.82;;
19861;SDS011;10093;48.148;8.542;2022-08-23T10:55:14;2.35;;;0.70;;
19861;SDS011;10093;48.148;8.542;2022-08-23T10:57:59;2.03;;;0.60;;
19861;SDS011;10093;48.148;8.542;2022-08-23T11:00:29;5.57;;;0.70;;
19861;SDS011;10093;48.148;8.542;2022-08-23T11:05:37;4.05;;;0.50;;
19861;SDS011;10093;48.148;8.542;2022-08-23T11:08:06;3.17;;;0.70;;
19861;SDS011;10093;48.148;8.542;2022-08-23T11:15:44;3.17;;;0.63;;
19861;SDS011;10093;48.148;8.542;2022-08-23T11:23:45;1.30;;;0.52;;
19861;SDS011;10093;48.148;8.542;2022-08-23T11:28:47;1.10;;;0.43;;
19861;SDS011;10093;48.148;8.542;2022-08-23T11:34:00;1.15;;;0.50;;
19861;SDS011;10093;48.148;8.542;2022-08-23T11:36:30;16.48;;;2.17;;
19861;SDS011;10093;48.148;8.542;2022-08-23T11:41:23;1.63;;;0.50;;
19861;SDS011;10093;48.148;8.542;2022-08-23T11:51:27;3.45;;;0.60;;
19861;SDS011;10093;48.148;8.542;2022-08-23T11:54:22;3.97;;;0.73;;
19861;SDS011;10093;48.148;8.542;2022-08-23T12:18:35;0.95;;;0.60;;
19861;SDS011;10093;48.148;8.542;2022-08-23T12:24:18;3.28;;;0.65;;
19861;SDS011;10093;48.148;8.542;2022-08-23T12:27:35;1.35;;;0.60;;
19861;SDS011;10093;48.148;8.542;2022-08-23T12:29:51;0.90;;;0.70;;
19861;SDS011;10093;48.148;8.542;2022-08-23T12:32:33;3.65;;;0.70;;
19861;SDS011;10093;48.148;8.542;2022-08-23T12:40:52;3.28;;;0.60;;
19861;SDS011;10093;48.148;8.542;2022-08-23T12:43:21;0.50;;;0.40;;
19861;SDS011;10093;48.148;8.542;2022-08-23T12:45:54;2.67;;;0.73;;
19861;SDS011;10093;48.148;8.542;2022-08-23T12:48:23;2.92;;;0.50;;
19861;SDS011;10093;48.148;8.542;2022-08-23T12:53:38;1.38;;;0.43;;
19861;SDS011;10093;48.148;8.542;2022-08-23T12:58:54;2.08;;;0.50;;
19861;SDS011;10093;48.148;8.542;2022-08-23T13:01:27;0.73;;;0.55;;
19861;SDS011;10093;48.148;8.542;2022-08-23T13:03:59;2.05;;;0.75;;
19861;SDS011;10093;48.148;8.542;2022-08-23T13:06:34;1.17;;;0.60;;
19861;SDS011;10093;48.148;8.542;2022-08-23T13:09:06;1.98;;;0.77;;
19861;SDS011;10093;48.148;8.542;2022-08-23T13:11:39;1.42;;;0.50;;
19861;SDS011;10093;48.148;8.542;2022-08-23T13:14:31;3.85;;;0.55;;
19861;SDS011;10093;48.148;8.542;2022-08-23T13:17:35;1.25;;;0.50;;
19861;SDS011;10093;48.148;8.542;2022-08-23T13:19:57;2.08;;;0.50;;
19861;SDS011;10093;48.148;8.542;2022-08-23T13:25:26;0.93;;;0.60;;
19861;SDS011;10093;48.148;8.542;2022-08-23T13:28:19;3.33;;;0.50;;
19861;SDS011;10093;48.148;8.542;2022-08-23T13:31:04;4.45;;;0.60;;
19861;SDS011;10093;48.148;8.542;2022-08-23T13:33:34;2.88;;;0.60;;
19861;SDS011;10093;48.148;8.542;2022-08-23T13:36:07;2.13;;;0.50;;
19861;SDS011;10093;48.148;8.542;2022-08-23T13:38:39;2.13;;;0.77;;
19861;SDS011;10093;48.148;8.542;2022-08-23T13:41:08;0.93;;;0.45;;
19861;SDS011;10093;48.148;8.542;2022-08-23T13:43:50;1.45;;;0.60;;
19861;SDS011;10093;48.148;8.542;2022-08-23T13:48:45;2.35;;;0.60;;
19861;SDS011;10093;48.148;8.542;2022-08-23T13:54:08;1.92;;;0.80;;
19861;SDS011;10093;48.148;8.542;2022-08-23T13:56:45;3.40;;;0.90;;
19861;SDS011;10093;48.148;8.542;2022-08-23T13:59:19;1.85;;;0.60;;
19861;SDS011;10093;48.148;8.542;2022-08-23T14:01:53;1.13;;;0.68;;
19861;SDS011;10093;48.148;8.542;2022-08-23T14:04:19;2.60;;;0.80;;
19861;SDS011;10093;48.148;8.542;2022-08-23T14:06:46;1.67;;;0.57;;
19861;SDS011;10093;48.148;8.542;2022-08-23T14:09:12;2.70;;;0.60;;
19861;SDS011;10093;48.148;8.542;2022-08-23T14:11:38;3.97;;;0.75;;
19861;SDS011;10093;48.148;8.542;2022-08-23T14:14:04;2.60;;;0.55;;
19861;SDS011;10093;48.148;8.542;2022-08-23T14:16:31;1.52;;;0.57;;
19861;SDS011;10093;48.148;8.542;2022-08-23T14:18:58;0.95;;;0.50;;
19861;SDS011;10093;48.148;8.542;2022-08-23T14:21:24;2.03;;;0.50;;
19861;SDS011;10093;48.148;8.542;2022-08-23T14:23:50;3.05;;;0.60;;
19861;SDS011;10093;48.148;8.542;2022-08-23T14:26:17;2.40;;;0.60;;
19861;SDS011;10093;48.148;8.542;2022-08-23T14:28:44;2.50;;;0.60;;
19861;SDS011;10093;48.148;8.542;2022-08-23T14:31:11;0.65;;;0.50;;
19861;SDS011;10093;48.148;8.542;2022-08-23T14:33:37;1.73;;;0.60;;
19861;SDS011;10093;48.148;8.542;2022-08-23T14:36:03;3.60;;;0.50;;
19861;SDS011;10093;48.148;8.542;2022-08-23T14:38:29;3.45;;;0.40;;
19861;SDS011;10093;48.148;8.542;2022-08-23T14:40:56;1.30;;;0.40;;
19861;SDS011;10093;48.148;8.542;2022-08-23T14:43:25;2.20;;;0.63;;
19861;SDS011;10093;48.148;8.542;2022-08-23T14:45:51;2.35;;;0.60;;
19861;SDS011;10093;48.148;8.542;2022-08-23T14:48:17;2.08;;;0.60;;
19861;SDS011;10093;48.148;8.542;2022-08-23T14:50:43;1.42;;;0.50;;
19861;SDS011;10093;48.148;8.542;2022-08-23T14:53:11;3.50;;;0.40;;
19861;SDS011;10093;48.148;8.542;2022-08-23T14:55:38;1.20;;;0.50;;
19861;SDS011;10093;48.148;8.542;2022-08-23T14:58:04;5.10;;;0.57;;
19861;SDS011;10093;48.148;8.542;2022-08-23T15:00:31;1.55;;;0.50;;
19861;SDS011;10093;48.148;8.542;2022-08-23T15:03:00;4.35;;;0.70;;
19861;SDS011;10093;48.148;8.542;2022-08-23T15:05:27;1.83;;;0.57;;
19861;SDS011;10093;48.148;8.542;2022-08-23T15:07:53;0.85;;;0.52;;
19861;SDS011;10093;48.148;8.542;2022-08-23T15:10:18;4.22;;;0.70;;
19861;SDS011;10093;48.148;8.542;2022-08-23T15:12:44;2.90;;;0.55;;
19861;SDS011;10093;48.148;8.542;2022-08-23T15:15:11;2.83;;;0.80;;
19861;SDS011;10093;48.148;8.542;2022-08-23T15:17:44;1.08;;;0.57;;
19861;SDS011;10093;48.148;8.542;2022-08-23T15:20:19;1.58;;;0.52;;
19861;SDS011;10093;48.148;8.542;2022-08-23T15:22:46;0.70;;;0.60;;
19861;SDS011;10093;48.148;8.542;2022-08-23T15:25:12;3.08;;;0.70;;
19861;SDS011;10093;48.148;8.542;2022-08-23T15:27:39;1.20;;;0.60;;
19861;SDS011;10093;48.148;8.542;2022-08-23T15:30:05;4.20;;;0.70;;
19861;SDS011;10093;48.148;8.542;2022-08-23T15:32:32;1.85;;;0.60;;
19861;SDS011;10093;48.148;8.542;2022-08-23T15:34:57;1.05;;;0.50;;
19861;SDS011;10093;48.148;8.542;2022-08-23T15:37:23;0.70;;;0.50;;
19861;SDS011;10093;48.148;8.542;2022-08-23T15:39:49;1.15;;;0.57;;
19861;SDS011;10093;48.148;8.542;2022-08-23T15:42:14;2.28;;;0.80;;
19861;SDS011;10093;48.148;8.542;2022-08-23T15:44:40;1.50;;;0.75;;
19861;SDS011;10093;48.148;8.542;2022-08-23T15:47:16;2.25;;;0.50;;
19861;SDS011;10093;48.148;8.542;2022-08-23T15:49:47;2.50;;;0.80;;
19861;SDS011;10093;48.148;8.542;2022-08-23T15:52:13;3.28;;;0.90;;
19861;SDS011;10093;48.148;8.542;2022-08-23T15:54:39;7.00;;;1.00;;
19861;SDS011;10093;48.148;8.542;2022-08-23T15:57:04;3.13;;;0.93;;
19861;SDS011;10093;48.148;8.542;2022-08-23T15:59:30;3.03;;;0.73;;
19861;SDS011;10093;48.148;8.542;2022-08-23T16:02:00;2.75;;;0.70;;
19861;SDS011;10093;48.148;8.542;2022-08-23T16:04:26;1.88;;;0.70;;
19861;SDS011;10093;48.148;8.542;2022-08-23T16:06:51;1.60;;;0.80;;
19861;SDS011;10093;48.148;8.542;2022-08-23T16:09:20;1.92;;;0.68;;
19861;SDS011;10093;48.148;8.542;2022-08-23T16:11:48;2.42;;;0.80;;
19861;SDS011;10093;48.148;8.542;2022-08-23T16:14:14;1.52;;;0.65;;
19861;SDS011;10093;48.148;8.542;2022-08-23T16:16:40;1.65;;;0.60;;
19861;SDS011;10093;48.148;8.542;2022-08-23T16:19:07;1.00;;;0.70;;
19861;SDS011;10093;48.148;8.542;2022-08-23T16:21:33;2.35;;;0.55;;
19861;SDS011;10093;48.148;8.542;2022-08-23T16:23:59;2.80;;;0.70;;
19861;SDS011;10093;48.148;8.542;2022-08-23T16:26:29;0.85;;;0.60;;
19861;SDS011;10093;48.148;8.542;2022-08-23T16:28:57;2.53;;;0.80;;
19861;SDS011;10093;48.148;8.542;2022-08-23T16:31:24;4.15;;;0.70;;
19861;SDS011;10093;48.148;8.542;2022-08-23T16:33:56;3.53;;;0.70;;
19861;SDS011;10093;48.148;8.542;2022-08-23T16:36:23;0.80;;;0.60;;
19861;SDS011;10093;48.148;8.542;2022-08-23T16:38:49;4.32;;;0.50;;
19861;SDS011;10093;48.148;8.542;2022-08-23T16:41:15;1.95;;;0.82;;
19861;SDS011;10093;48.148;8.542;2022-08-23T16:43:41;2.50;;;0.60;;
19861;SDS011;10093;48.148;8.542;2022-08-23T16:46:07;1.63;;;0.75;;
19861;SDS011;10093;48.148;8.542;2022-08-23T16:48:33;3.17;;;0.80;;
19861;SDS011;10093;48.148;8.542;2022-08-23T16:50:59;3.90;;;0.70;;
19861;SDS011;10093;48.148;8.542;2022-08-23T16:53:25;0.98;;;0.60;;
19861;SDS011;10093;48.148;8.542;2022-08-23T16:55:51;2.75;;;0.70;;
19861;SDS011;10093;48.148;8.542;2022-08-23T16:58:18;0.95;;;0.73;;
19861;SDS011;10093;48.148;8.542;2022-08-23T17:00:45;2.05;;;0.80;;